sensor_id;sensor_type;location;lat;lon;timestamp;pressure;altitude;pressure_sealevel;temperature;humidity
36788;BME280;22738;45.560;9.434;2023-03-26T00:00:16;99362.81;;;11.63;83.49
36788;BME280;22738;45.560;9.434;2023-03-26T00:06:58;99364.16;;;11.23;89.98
36788;BME280;22738;45.560;9.434;2023-03-26T00:13:39;99363.97;;;10.79;99.90
36788;BME280;22738;45.560;9.434;2023-03-26T00:20:23;99358.78;;;10.79;96.42
36788;BME280;22738;45.560;9.434;2023-03-26T00:27:05;99357.09;;;10.90;100.00
36788;BME280;22738;45.560;9.434;2023-03-26T00:33:50;99363.03;;;10.56;100.00
36788;BME280;22738;45.560;9.434;2023-03-26T00:40:34;99340.94;;;10.27;100.00
36788;BME280;22738;45.560;9.434;2023-03-26T00:47:16;99324.44;;;9.79;100.00
36788;BME280;22738;45.560;9.434;2023-03-26T00:53:57;99315.16;;;9.51;100.00
36788;BME280;22738;45.560;9.434;2023-03-26T01:01:03;99308.84;;;9.43;100.00
36788;BME280;22738;45.560;9.434;2023-03-26T01:07:45;99300.91;;;8.94;100.00
36788;BME280;22738;45.560;9.434;2023-03-26T01:14:26;99295.50;;;9.97;86.87
36788;BME280;22738;45.560;9.434;2023-03-26T01:21:09;99289.81;;;10.41;83.87
36788;BME280;22738;45.560;9.434;2023-03-26T01:27:54;99289.81;;;10.65;79.84
36788;BME280;22738;45.560;9.434;2023-03-26T01:34:48;99287.06;;;10.55;100.00
36788;BME280;22738;45.560;9.434;2023-03-26T01:41:42;99287.59;;;10.48;100.00
36788;BME280;22738;45.560;9.434;2023-03-26T01:48:33;99296.38;;;10.34;100.00
36788;BME280;22738;45.560;9.434;2023-03-26T01:55:16;99287.19;;;10.18;100.00
36788;BME280;22738;45.560;9.434;2023-03-26T02:08:56;99293.72;;;10.11;100.00
36788;BME280;22738;45.560;9.434;2023-03-26T02:15:39;99297.44;;;10.06;100.00
36788;BME280;22738;45.560;9.434;2023-03-26T02:22:21;99319.63;;;10.11;100.00
36788;BME280;22738;45.560;9.434;2023-03-26T02:29:02;99329.78;;;10.14;100.00
36788;BME280;22738;45.560;9.434;2023-03-26T02:35:44;99339.88;;;10.29;100.00
36788;BME280;22738;45.560;9.434;2023-03-26T02:42:26;99347.69;;;10.53;100.00
36788;BME280;22738;45.560;9.434;2023-03-26T02:49:08;99344.84;;;10.45;100.00
36788;BME280;22738;45.560;9.434;2023-03-26T02:55:49;99342.56;;;10.40;100.00
36788;BME280;22738;45.560;9.434;2023-03-26T03:02:33;99350.09;;;10.20;100.00
36788;BME280;22738;45.560;9.434;2023-03-26T03:09:35;99333.34;;;9.87;100.00
36788;BME280;22738;45.560;9.434;2023-03-26T03:16:39;99328.56;;;9.81;100.00
36788;BME280;22738;45.560;9.434;2023-03-26T03:23:23;99324.66;;;9.76;100.00
36788;BME280;22738;45.560;9.434;2023-03-26T03:30:11;99342.66;;;9.77;100.00
36788;BME280;22738;45.560;9.434;2023-03-26T03:36:59;99320.38;;;9.75;100.00
36788;BME280;22738;45.560;9.434;2023-03-26T03:43:49;99315.75;;;9.67;100.00
36788;BME280;22738;45.560;9.434;2023-03-26T03:50:38;99313.66;;;9.72;100.00
36788;BME280;22738;45.560;9.434;2023-03-26T03:57:32;99314.06;;;9.91;100.00
36788;BME280;22738;45.560;9.434;2023-03-26T04:04:21;99316.69;;;9.66;100.00
36788;BME280;22738;45.560;9.434;2023-03-26T04:11:12;99340.47;;;9.59;100.00
36788;BME280;22738;45.560;9.434;2023-03-26T04:18:18;99330.25;;;9.57;100.00
36788;BME280;22738;45.560;9.434;2023-03-26T04:25:01;99344.53;;;9.63;100.00
36788;BME280;22738;45.560;9.434;2023-03-26T04:31:59;99343.50;;;9.65;100.00
36788;BME280;22738;45.560;9.434;2023-03-26T04:38:46;99350.00;;;9.58;100.00
36788;BME280;22738;45.560;9.434;2023-03-26T04:45:36;99362.72;;;9.61;100.00
36788;BME280;22738;45.560;9.434;2023-03-26T04:52:17;99362.72;;;9.61;100.00
36788;BME280;22738;45.560;9.434;2023-03-26T04:59:05;99359.81;;;9.66;100.00
36788;BME280;22738;45.560;9.434;2023-03-26T05:05:52;99346.47;;;9.59;100.00
36788;BME280;22738;45.560;9.434;2023-03-26T05:12:34;99345.97;;;9.67;100.00
36788;BME280;22738;45.560;9.434;2023-03-26T05:19:24;99335.31;;;9.71;100.00
36788;BME280;22738;45.560;9.434;2023-03-26T05:26:05;99349.09;;;9.72;100.00
36788;BME280;22738;45.560;9.434;2023-03-26T05:32:48;99335.41;;;9.82;100.00
36788;BME280;22738;45.560;9.434;2023-03-26T05:39:32;99320.06;;;9.92;100.00
36788;BME280;22738;45.560;9.434;2023-03-26T05:46:32;99320.66;;;10.08;100.00
36788;BME280;22738;45.560;9.434;2023-03-26T05:53:14;99339.63;;;10.21;100.00
36788;BME280;22738;45.560;9.434;2023-03-26T05:59:58;99339.66;;;10.45;100.00
36788;BME280;22738;45.560;9.434;2023-03-26T06:06:57;99328.94;;;10.73;100.00
36788;BME280;22738;45.560;9.434;2023-03-26T06:13:40;99339.41;;;10.95;100.00
36788;BME280;22738;45.560;9.434;2023-03-26T06:20:21;99343.22;;;11.13;100.00
36788;BME280;22738;45.560;9.434;2023-03-26T06:27:05;99327.56;;;11.61;100.00
36788;BME280;22738;45.560;9.434;2023-03-26T06:34:04;99331.13;;;11.93;100.00
36788;BME280;22738;45.560;9.434;2023-03-26T06:40:45;99317.16;;;12.16;100.00
36788;BME280;22738;45.560;9.434;2023-03-26T06:47:39;99302.41;;;12.59;100.00
36788;BME280;22738;45.560;9.434;2023-03-26T06:55:01;99291.81;;;13.45;100.00
36788;BME280;22738;45.560;9.434;2023-03-26T07:02:09;99294.00;;;17.84;100.00
36788;BME280;22738;45.560;9.434;2023-03-26T07:09:10;99285.53;;;20.92;96.93
36788;BME280;22738;45.560;9.434;2023-03-26T07:16:09;99277.69;;;21.58;84.18
36788;BME280;22738;45.560;9.434;2023-03-26T07:23:13;99290.19;;;22.44;71.53
36788;BME280;22738;45.560;9.434;2023-03-26T07:37:24;99291.22;;;21.03;80.53
36788;BME280;22738;45.560;9.434;2023-03-26T07:51:31;99215.34;;;21.72;80.62
36788;BME280;22738;45.560;9.434;2023-03-26T08:06:01;99234.53;;;23.36;66.17
36788;BME280;22738;45.560;9.434;2023-03-26T08:21:16;99236.75;;;23.12;61.50
36788;BME280;22738;45.560;9.434;2023-03-26T08:27:42;99232.91;;;21.79;81.21
36788;BME280;22738;45.560;9.434;2023-03-26T08:34:27;99216.72;;;21.09;84.97
36788;BME280;22738;45.560;9.434;2023-03-26T08:48:28;99197.97;;;19.60;97.99
36788;BME280;22738;45.560;9.434;2023-03-26T08:55:30;99179.94;;;20.11;96.37
36788;BME280;22738;45.560;9.434;2023-03-26T09:02:35;99172.34;;;19.54;100.00
36788;BME280;22738;45.560;9.434;2023-03-26T09:16:21;99136.88;;;19.42;100.00
36788;BME280;22738;45.560;9.434;2023-03-26T09:37:53;99138.00;;;19.01;100.00
36788;BME280;22738;45.560;9.434;2023-03-26T09:58:48;99066.72;;;19.12;100.00
36788;BME280;22738;45.560;9.434;2023-03-26T10:12:41;99089.13;;;18.92;100.00
36788;BME280;22738;45.560;9.434;2023-03-26T10:19:48;99103.88;;;18.93;100.00
36788;BME280;22738;45.560;9.434;2023-03-26T10:34:16;99081.28;;;18.35;100.00
36788;BME280;22738;45.560;9.434;2023-03-26T10:41:13;99066.06;;;17.91;100.00
36788;BME280;22738;45.560;9.434;2023-03-26T10:48:29;99034.44;;;17.92;100.00
36788;BME280;22738;45.560;9.434;2023-03-26T10:55:24;99022.59;;;18.52;100.00
36788;BME280;22738;45.560;9.434;2023-03-26T11:02:28;99022.97;;;18.01;100.00
36788;BME280;22738;45.560;9.434;2023-03-26T11:16:17;99013.06;;;18.43;100.00
36788;BME280;22738;45.560;9.434;2023-03-26T11:30:28;98997.38;;;18.19;100.00
36788;BME280;22738;45.560;9.434;2023-03-26T11:37:22;98998.03;;;17.97;100.00
36788;BME280;22738;45.560;9.434;2023-03-26T11:44:29;98982.81;;;17.93;100.00
36788;BME280;22738;45.560;9.434;2023-03-26T11:51:17;98963.94;;;17.49;100.00
36788;BME280;22738;45.560;9.434;2023-03-26T11:58:02;98948.91;;;17.59;100.00
36788;BME280;22738;45.560;9.434;2023-03-26T12:04:50;98926.59;;;17.39;100.00
36788;BME280;22738;45.560;9.434;2023-03-26T12:11:32;98923.28;;;17.04;100.00
36788;BME280;22738;45.560;9.434;2023-03-26T12:18:25;98932.44;;;17.00;100.00
36788;BME280;22738;45.560;9.434;2023-03-26T12:25:17;98912.94;;;16.87;100.00
36788;BME280;22738;45.560;9.434;2023-03-26T12:32:19;98881.78;;;16.60;100.00
36788;BME280;22738;45.560;9.434;2023-03-26T12:39:21;98874.81;;;16.42;100.00
36788;BME280;22738;45.560;9.434;2023-03-26T12:46:25;98867.16;;;16.49;100.00
36788;BME280;22738;45.560;9.434;2023-03-26T12:53:14;98864.34;;;16.34;100.00
36788;BME280;22738;45.560;9.434;2023-03-26T13:07:24;98842.56;;;16.26;100.00
36788;BME280;22738;45.560;9.434;2023-03-26T13:21:11;98854.28;;;16.14;100.00
36788;BME280;22738;45.560;9.434;2023-03-26T13:49:17;98871.31;;;15.06;100.00
36788;BME280;22738;45.560;9.434;2023-03-26T13:55:59;98871.50;;;14.77;100.00
36788;BME280;22738;45.560;9.434;2023-03-26T14:02:54;98859.63;;;14.47;100.00
36788;BME280;22738;45.560;9.434;2023-03-26T14:16:33;98852.00;;;13.99;100.00
36788;BME280;22738;45.560;9.434;2023-03-26T14:23:24;98873.19;;;13.77;100.00
36788;BME280;22738;45.560;9.434;2023-03-26T14:30:36;98853.56;;;13.36;100.00
36788;BME280;22738;45.560;9.434;2023-03-26T14:44:28;98797.28;;;12.68;100.00
36788;BME280;22738;45.560;9.434;2023-03-26T15:47:55;98575.22;;;12.15;100.00
36788;BME280;22738;45.560;9.434;2023-03-26T16:15:33;98586.91;;;12.48;100.00
36788;BME280;22738;45.560;9.434;2023-03-26T17:03:53;98561.13;;;12.73;100.00
36788;BME280;22738;45.560;9.434;2023-03-26T17:10:54;98533.22;;;12.66;100.00
36788;BME280;22738;45.560;9.434;2023-03-26T17:24:55;98508.34;;;12.63;100.00
36788;BME280;22738;45.560;9.434;2023-03-26T17:45:16;98476.16;;;12.37;100.00
36788;BME280;22738;45.560;9.434;2023-03-26T17:52:04;98477.97;;;12.27;100.00
36788;BME280;22738;45.560;9.434;2023-03-26T17:58:55;98492.38;;;12.12;100.00
36788;BME280;22738;45.560;9.434;2023-03-26T18:05:40;98506.63;;;11.89;100.00
36788;BME280;22738;45.560;9.434;2023-03-26T18:19:22;98541.34;;;11.69;100.00
36788;BME280;22738;45.560;9.434;2023-03-26T18:26:40;98549.22;;;11.58;100.00
36788;BME280;22738;45.560;9.434;2023-03-26T18:33:23;98543.47;;;11.64;100.00
36788;BME280;22738;45.560;9.434;2023-03-26T18:40:17;98540.78;;;11.84;100.00
36788;BME280;22738;45.560;9.434;2023-03-26T18:47:04;98526.84;;;11.76;100.00
36788;BME280;22738;45.560;9.434;2023-03-26T18:53:51;98525.06;;;11.67;100.00
36788;BME280;22738;45.560;9.434;2023-03-26T19:00:34;98528.59;;;11.56;100.00
36788;BME280;22738;45.560;9.434;2023-03-26T19:07:22;98518.88;;;11.39;100.00
36788;BME280;22738;45.560;9.434;2023-03-26T19:14:14;98509.59;;;11.36;100.00
36788;BME280;22738;45.560;9.434;2023-03-26T19:20:57;98513.81;;;11.28;100.00
36788;BME280;22738;45.560;9.434;2023-03-26T19:27:39;98539.59;;;11.10;100.00
36788;BME280;22738;45.560;9.434;2023-03-26T19:34:33;98549.09;;;11.00;100.00
36788;BME280;22738;45.560;9.434;2023-03-26T19:41:41;98546.88;;;10.86;100.00
36788;BME280;22738;45.560;9.434;2023-03-26T19:48:24;98544.41;;;10.85;100.00
36788;BME280;22738;45.560;9.434;2023-03-26T19:55:21;98546.56;;;10.80;100.00
36788;BME280;22738;45.560;9.434;2023-03-26T20:02:09;98541.69;;;10.86;100.00
36788;BME280;22738;45.560;9.434;2023-03-26T20:08:50;98510.00;;;11.13;100.00
36788;BME280;22738;45.560;9.434;2023-03-26T20:15:33;98504.50;;;11.16;100.00
36788;BME280;22738;45.560;9.434;2023-03-26T20:22:18;98492.13;;;11.19;100.00
36788;BME280;22738;45.560;9.434;2023-03-26T20:29:01;98498.31;;;10.88;100.00
36788;BME280;22738;45.560;9.434;2023-03-26T20:35:43;98498.00;;;10.72;100.00
36788;BME280;22738;45.560;9.434;2023-03-26T20:42:25;98517.00;;;10.52;100.00
36788;BME280;22738;45.560;9.434;2023-03-26T20:49:06;98538.00;;;10.07;100.00
36788;BME280;22738;45.560;9.434;2023-03-26T20:55:47;98510.16;;;10.00;100.00
36788;BME280;22738;45.560;9.434;2023-03-26T21:02:28;98515.00;;;9.93;100.00
36788;BME280;22738;45.560;9.434;2023-03-26T21:09:12;98516.59;;;10.05;100.00
36788;BME280;22738;45.560;9.434;2023-03-26T21:15:55;98516.00;;;10.02;100.00
36788;BME280;22738;45.560;9.434;2023-03-26T21:22:52;98527.00;;;9.94;100.00
36788;BME280;22738;45.560;9.434;2023-03-26T21:29:39;98513.56;;;10.00;100.00
36788;BME280;22738;45.560;9.434;2023-03-26T21:36:20;98516.59;;;10.05;100.00
36788;BME280;22738;45.560;9.434;2023-03-26T21:43:03;98515.53;;;10.29;100.00
36788;BME280;22738;45.560;9.434;2023-03-26T21:49:44;98506.03;;;10.39;100.00
36788;BME280;22738;45.560;9.434;2023-03-26T22:10:30;98480.78;;;10.61;100.00
36788;BME280;22738;45.560;9.434;2023-03-26T22:17:11;98478.56;;;10.57;100.00
36788;BME280;22738;45.560;9.434;2023-03-26T22:23:52;98483.31;;;10.52;100.00
36788;BME280;22738;45.560;9.434;2023-03-26T22:30:34;98483.03;;;10.45;100.00
36788;BME280;22738;45.560;9.434;2023-03-26T22:37:15;98470.06;;;10.36;100.00
36788;BME280;22738;45.560;9.434;2023-03-26T22:43:57;98473.78;;;10.22;100.00
36788;BME280;22738;45.560;9.434;2023-03-26T22:50:40;98469.44;;;10.23;100.00
36788;BME280;22738;45.560;9.434;2023-03-26T22:57:22;98466.59;;;10.05;100.00
36788;BME280;22738;45.560;9.434;2023-03-26T23:04:03;98476.50;;;9.79;100.00
36788;BME280;22738;45.560;9.434;2023-03-26T23:10:44;98478.22;;;9.69;100.00
36788;BME280;22738;45.560;9.434;2023-03-26T23:17:25;98486.81;;;9.70;100.00
36788;BME280;22738;45.560;9.434;2023-03-26T23:24:07;98482.00;;;9.65;100.00
36788;BME280;22738;45.560;9.434;2023-03-26T23:30:49;98476.78;;;9.76;100.00
36788;BME280;22738;45.560;9.434;2023-03-26T23:37:32;98474.59;;;10.02;100.00
36788;BME280;22738;45.560;9.434;2023-03-26T23:44:14;98454.72;;;10.23;100.00
36788;BME280;22738;45.560;9.434;2023-03-26T23:50:56;98453.88;;;10.23;100.00
36788;BME280;22738;45.560;9.434;2023-03-26T23:57:40;98466.59;;;10.05;100.00
